Time;durP1;ratioP1;P1;durP2;ratioP2;P2;SDS_P1;SDS_P2;PMS_P1;PMS_P2;Temp;Humidity;BMP_temperature;BMP_pressure;BME280_temperature;BME280_humidity;BME280_pressure;Samples;Min_cycle;Max_cycle;Signal;HPM_P1;HPM_P2
2024/01/04 00:00:17;;;;;;;5.80;2.85;;;7.50;99.90;;;;;;5020746;28;20140;-78
2024/01/04 00:02:43;;;;;;;6.07;3.00;;;7.50;99.90;;;;;;5020807;28;20046;-78
2024/01/04 00:05:09;;;;;;;7.50;2.72;;;7.50;99.90;;;;;;5020287;28;20083;-78
2024/01/04 00:07:35;;;;;;;7.72;3.20;;;7.40;99.90;;;;;;5022326;28;21692;-78
2024/01/04 00:10:00;;;;;;;5.45;2.50;;;7.50;99.90;;;;;;5021159;28;20961;-78
2024/01/04 00:12:26;;;;;;;6.05;2.67;;;7.40;99.90;;;;;;5021439;28;20041;-77
2024/01/04 00:14:52;;;;;;;3.13;1.63;;;7.40;99.90;;;;;;5018743;28;20048;-78
2024/01/04 00:17:17;;;;;;;1.50;1.10;;;7.40;99.90;;;;;;5022110;28;20042;-78
2024/01/04 00:19:43;;;;;;;5.40;2.40;;;7.30;99.90;;;;;;5021959;28;20048;-78
2024/01/04 00:22:09;;;;;;;4.90;2.40;;;7.30;99.90;;;;;;5021997;28;20756;-78
2024/01/04 00:24:34;;;;;;;5.55;2.50;;;7.30;99.90;;;;;;5018856;28;20565;-78
2024/01/04 00:27:00;;;;;;;6.28;2.90;;;7.30;99.90;;;;;;5028622;28;20053;-78
2024/01/04 00:29:26;;;;;;;6.45;2.45;;;7.30;99.90;;;;;;5022951;28;20043;-78
2024/01/04 00:31:51;;;;;;;5.78;2.45;;;7.30;99.90;;;;;;5031940;28;20049;-77
2024/01/04 00:34:17;;;;;;;5.20;2.50;;;7.30;99.90;;;;;;5019064;28;20052;-78
2024/01/04 00:36:43;;;;;;;7.07;2.50;;;7.30;99.90;;;;;;5016723;28;20076;-78
2024/01/04 00:39:08;;;;;;;3.95;1.33;;;7.30;99.90;;;;;;5032326;28;20053;-78
2024/01/04 00:41:34;;;;;;;5.63;2.25;;;7.20;99.90;;;;;;5032459;28;20045;-78
2024/01/04 00:44:00;;;;;;;7.10;2.17;;;7.30;99.90;;;;;;5028298;28;20041;-78
2024/01/04 00:46:25;;;;;;;7.72;2.13;;;7.20;99.90;;;;;;5020593;28;20054;-77
2024/01/04 00:48:51;;;;;;;6.40;2.17;;;7.20;99.90;;;;;;5033647;28;20477;-78
2024/01/04 00:51:17;;;;;;;3.67;1.20;;;7.20;99.90;;;;;;5021830;28;20033;-79
2024/01/04 00:53:43;;;;;;;7.10;1.88;;;7.20;99.90;;;;;;5024435;28;20127;-79
2024/01/04 00:56:09;;;;;;;4.60;1.70;;;7.20;99.90;;;;;;5028046;28;20056;-79
2024/01/04 00:58:35;;;;;;;3.97;1.63;;;7.10;99.90;;;;;;5025164;28;20283;-79
2024/01/04 01:01:03;;;;;;;7.07;2.15;;;7.10;99.90;;;;;;5034455;28;20052;-78
2024/01/04 01:03:29;;;;;;;5.35;1.88;;;7.10;99.90;;;;;;5021131;28;20053;-78
2024/01/04 01:05:56;;;;;;;6.35;2.08;;;7.10;99.90;;;;;;5039903;28;20046;-79
2024/01/04 01:08:21;;;;;;;5.00;1.05;;;7.10;99.90;;;;;;5022075;28;20044;-78
2024/01/04 01:10:47;;;;;;;5.22;0.70;;;7.00;99.90;;;;;;5025142;28;20045;-78
2024/01/04 01:13:19;;;;;;;5.47;1.63;;;7.00;99.90;;;;;;5028259;28;20065;-78
2024/01/04 01:15:46;;;;;;;5.45;1.85;;;7.00;99.90;;;;;;5026169;28;20473;-79
2024/01/04 01:18:11;;;;;;;3.17;1.80;;;7.00;99.90;;;;;;5057708;28;20497;-79
2024/01/04 01:20:37;;;;;;;5.97;1.90;;;7.00;99.90;;;;;;5028454;28;20079;-79
2024/01/04 01:23:03;;;;;;;5.18;0.80;;;7.00;99.90;;;;;;5019402;28;20156;-79
2024/01/04 01:25:28;;;;;;;3.58;1.65;;;6.90;99.90;;;;;;5056777;28;20049;-79
2024/01/04 01:27:54;;;;;;;5.38;1.50;;;6.90;99.90;;;;;;5025653;28;20124;-79
2024/01/04 01:30:20;;;;;;;5.18;1.80;;;6.90;99.90;;;;;;5023927;28;21875;-79
2024/01/04 01:32:45;;;;;;;4.25;1.73;;;6.90;99.90;;;;;;5024825;28;20052;-79
2024/01/04 01:35:12;;;;;;;6.82;1.88;;;6.90;99.90;;;;;;5029322;28;20045;-79
2024/01/04 01:37:38;;;;;;;6.05;1.95;;;6.90;99.90;;;;;;5024977;28;20111;-79
2024/01/04 01:40:05;;;;;;;5.28;1.55;;;6.90;99.90;;;;;;5023715;28;20528;-79
2024/01/04 01:42:31;;;;;;;2.92;1.70;;;6.90;99.90;;;;;;5027535;28;20038;-78
2024/01/04 01:44:56;;;;;;;4.45;1.77;;;6.90;99.90;;;;;;5013971;28;20041;-78
2024/01/04 01:47:24;;;;;;;5.72;1.73;;;6.80;99.90;;;;;;5016349;28;20132;-77
2024/01/04 01:49:50;;;;;;;;;;;6.70;99.90;;;;;;5024226;28;20073;-77
2024/01/04 01:52:16;;;;;;;1.85;1.25;;;6.70;99.90;;;;;;5023948;28;19925;-78
2024/01/04 01:54:42;;;;;;;2.17;0.90;;;6.60;99.90;;;;;;5025925;28;20059;-77
2024/01/04 01:57:08;;;;;;;4.63;1.77;;;6.60;99.90;;;;;;5059595;28;20147;-77
2024/01/04 01:59:34;;;;;;;6.13;1.80;;;6.50;99.90;;;;;;5031491;28;20081;-77
2024/01/04 02:02:00;;;;;;;6.72;1.95;;;6.50;99.90;;;;;;5024735;28;20072;-77
2024/01/04 02:04:26;;;;;;;6.60;1.95;;;6.50;99.90;;;;;;5049535;28;20053;-77
2024/01/04 02:06:52;;;;;;;4.78;1.90;;;6.40;99.90;;;;;;5021349;28;20042;-77
2024/01/04 02:09:17;;;;;;;3.47;1.70;;;6.50;99.90;;;;;;5018965;28;20133;-77
2024/01/04 02:11:45;;;;;;;4.85;1.60;;;6.40;99.90;;;;;;5059452;28;20045;-77
2024/01/04 02:14:11;;;;;;;5.53;1.77;;;6.40;99.90;;;;;;5018867;28;20616;-77
2024/01/04 02:16:36;;;;;;;5.95;1.80;;;6.40;99.90;;;;;;5043436;28;20037;-77
2024/01/04 02:19:07;;;;;;;4.97;1.80;;;6.40;99.90;;;;;;5049379;28;20057;-77
2024/01/04 02:21:36;;;;;;;6.47;2.10;;;6.40;99.90;;;;;;5026400;28;20151;-77
2024/01/04 02:24:02;;;;;;;7.07;1.55;;;6.30;99.90;;;;;;5025673;28;20120;-77
2024/01/04 02:26:28;;;;;;;7.88;1.90;;;6.30;99.90;;;;;;5024612;28;20470;-77
2024/01/04 02:28:53;;;;;;;5.78;1.45;;;6.30;99.90;;;;;;5027676;28;20068;-77
2024/01/04 02:31:19;;;;;;;6.07;1.95;;;6.30;99.90;;;;;;5027350;28;20076;-77
2024/01/04 02:33:44;;;;;;;6.80;1.92;;;6.30;99.90;;;;;;5018974;28;20124;-77
2024/01/04 02:36:10;;;;;;;5.60;1.80;;;6.30;99.90;;;;;;5027594;28;20049;-78
2024/01/04 02:38:35;;;;;;;8.77;2.15;;;6.20;99.90;;;;;;5030124;28;20045;-77
2024/01/04 02:41:01;;;;;;;5.82;1.85;;;6.20;99.90;;;;;;5023653;28;20468;-77
2024/01/04 02:43:27;;;;;;;5.70;2.17;;;6.20;99.90;;;;;;5049706;28;20087;-77
2024/01/04 02:45:52;;;;;;;5.50;1.90;;;6.20;99.90;;;;;;5024444;28;20397;-77
2024/01/04 02:48:18;;;;;;;7.45;1.92;;;6.10;99.90;;;;;;5031291;28;20065;-77
2024/01/04 02:50:43;;;;;;;6.50;2.33;;;6.20;99.90;;;;;;5024549;28;20041;-78
2024/01/04 02:53:09;;;;;;;6.43;2.05;;;6.10;99.90;;;;;;5060336;28;21597;-78
2024/01/04 02:55:35;;;;;;;7.30;2.38;;;6.10;99.90;;;;;;5027452;28;20491;-78
2024/01/04 02:58:00;;;;;;;5.97;1.80;;;6.20;99.90;;;;;;5026268;28;20041;-78
2024/01/04 03:00:27;;;;;;;5.75;1.95;;;6.10;99.90;;;;;;5023286;28;20045;-76
2024/01/04 03:02:52;;;;;;;9.25;2.17;;;6.00;99.90;;;;;;5016599;28;20099;-78
2024/01/04 03:05:18;;;;;;;7.63;2.42;;;6.10;99.90;;;;;;5033118;28;20069;-77
2024/01/04 03:07:44;;;;;;;8.43;2.40;;;5.90;99.90;;;;;;5027206;28;20057;-77
2024/01/04 03:10:10;;;;;;;7.15;2.63;;;6.00;99.90;;;;;;5028126;28;20034;-78
2024/01/04 03:12:39;;;;;;;5.53;2.20;;;6.00;99.90;;;;;;5029279;28;20033;-78
2024/01/04 03:15:08;;;;;;;7.43;1.92;;;6.00;99.90;;;;;;5028838;28;20485;-78
2024/01/04 03:17:34;;;;;;;6.50;2.25;;;6.00;99.90;;;;;;5028095;28;20401;-77
2024/01/04 03:19:59;;;;;;;9.65;2.80;;;5.90;99.90;;;;;;5028940;28;20049;-77
2024/01/04 03:22:25;;;;;;;5.63;2.05;;;5.90;99.90;;;;;;5027221;28;20045;-77
2024/01/04 03:24:50;;;;;;;10.23;2.72;;;5.80;99.90;;;;;;5027856;28;20046;-77
2024/01/04 03:27:16;;;;;;;7.05;2.45;;;5.80;99.90;;;;;;5027878;28;20049;-77
2024/01/04 03:29:42;;;;;;;8.57;2.25;;;5.80;99.90;;;;;;5027277;28;20512;-77
2024/01/04 03:32:08;;;;;;;7.25;1.95;;;5.80;99.90;;;;;;5025695;28;20065;-78
2024/01/04 03:34:34;;;;;;;5.82;2.00;;;5.80;99.90;;;;;;5024647;28;20056;-78
2024/01/04 03:37:00;;;;;;;6.93;2.10;;;5.80;99.90;;;;;;5027858;28;20475;-77
2024/01/04 03:39:25;;;;;;;10.73;2.40;;;5.80;99.90;;;;;;5026444;28;20053;-77
2024/01/04 03:41:51;;;;;;;3.85;1.02;;;5.70;99.90;;;;;;5028742;28;20077;-78
2024/01/04 03:44:17;;;;;;;3.63;0.80;;;5.70;99.90;;;;;;5061447;28;20076;-78
2024/01/04 03:46:42;;;;;;;4.28;0.95;;;5.70;99.90;;;;;;5028212;28;20052;-77
2024/01/04 03:49:08;;;;;;;4.35;1.48;;;5.60;99.90;;;;;;5029205;28;20037;-77
2024/01/04 03:51:33;;;;;;;8.80;2.47;;;5.70;99.90;;;;;;5063764;28;20053;-77
2024/01/04 03:53:59;;;;;;;6.05;2.15;;;5.70;99.90;;;;;;5026429;28;20037;-78
2024/01/04 03:56:25;;;;;;;3.20;1.33;;;5.70;99.90;;;;;;5017989;28;20041;-77
2024/01/04 03:58:51;;;;;;;2.50;1.05;;;5.70;99.90;;;;;;5027821;28;20044;-77
2024/01/04 04:01:17;;;;;;;7.15;2.03;;;5.70;99.90;;;;;;5024428;28;20041;-77
2024/01/04 04:03:43;;;;;;;8.25;2.03;;;5.70;99.90;;;;;;5022695;28;20056;-77
2024/01/04 04:06:08;;;;;;;6.82;1.90;;;5.70;99.90;;;;;;5018290;28;20438;-77
2024/01/04 04:08:35;;;;;;;6.95;1.80;;;5.70;99.90;;;;;;5020975;28;20053;-77
2024/01/04 04:11:00;;;;;;;6.85;2.15;;;5.70;99.90;;;;;;5026219;28;20176;-77
2024/01/04 04:13:26;;;;;;;6.80;1.88;;;5.70;99.90;;;;;;5031048;28;20128;-78
2024/01/04 04:15:51;;;;;;;6.40;1.80;;;5.70;99.90;;;;;;5036981;28;20050;-77
2024/01/04 04:18:17;;;;;;;6.60;1.77;;;5.70;99.90;;;;;;5028750;28;20049;-77
2024/01/04 04:20:43;;;;;;;7.45;1.92;;;5.70;99.90;;;;;;5053279;28;20100;-77
2024/01/04 04:23:08;;;;;;;5.40;1.80;;;5.70;99.90;;;;;;5031663;28;20057;-77
2024/01/04 04:25:36;;;;;;;3.08;0.82;;;5.70;99.90;;;;;;5024842;28;20038;-77
2024/01/04 04:28:02;;;;;;;4.50;1.27;;;5.70;99.90;;;;;;5031257;28;20459;-78
2024/01/04 04:30:29;;;;;;;2.65;0.82;;;5.70;99.90;;;;;;5030552;28;20045;-77
2024/01/04 04:32:55;;;;;;;7.55;1.60;;;5.60;99.90;;;;;;5043737;28;20481;-78
2024/01/04 04:35:21;;;;;;;4.03;1.50;;;5.60;99.90;;;;;;5020476;28;20189;-77
2024/01/04 04:37:47;;;;;;;6.47;1.75;;;5.70;99.90;;;;;;5023462;28;20512;-77
2024/01/04 04:40:13;;;;;;;3.67;0.85;;;5.70;99.90;;;;;;5030331;28;20046;-78
2024/01/04 04:42:38;;;;;;;6.85;1.67;;;5.70;99.90;;;;;;5027658;28;20115;-77
2024/01/04 04:45:05;;;;;;;5.82;0.77;;;5.60;99.90;;;;;;5026879;28;20538;-78
2024/01/04 04:47:30;;;;;;;6.35;1.50;;;5.70;99.90;;;;;;5028423;28;20489;-78
2024/01/04 04:49:56;;;;;;;5.28;1.52;;;5.70;99.90;;;;;;5025078;28;20052;-77
2024/01/04 04:52:22;;;;;;;5.13;0.77;;;5.70;99.90;;;;;;5022972;28;20033;-77
2024/01/04 04:54:48;;;;;;;3.13;0.47;;;5.70;99.90;;;;;;5026204;28;20503;-78
2024/01/04 04:57:13;;;;;;;2.15;0.80;;;5.70;99.90;;;;;;5025120;28;20041;-77
2024/01/04 04:59:39;;;;;;;5.10;1.48;;;5.70;99.90;;;;;;5025973;28;20507;-77
2024/01/04 05:02:04;;;;;;;4.70;1.23;;;5.70;99.90;;;;;;5027786;28;20054;-77
2024/01/04 05:04:30;;;;;;;8.30;1.55;;;5.70;99.90;;;;;;5028534;28;20128;-77
2024/01/04 05:06:56;;;;;;;3.35;0.82;;;5.70;99.90;;;;;;5022407;28;20140;-77
2024/01/04 05:09:22;;;;;;;1.52;0.68;;;5.70;99.90;;;;;;5024779;28;20399;-77
2024/01/04 05:11:47;;;;;;;4.78;1.38;;;5.60;99.90;;;;;;5042142;28;20550;-77
2024/01/04 05:14:13;;;;;;;4.90;1.30;;;5.60;99.90;;;;;;5055964;28;20042;-77
2024/01/04 05:16:38;;;;;;;5.15;1.30;;;5.70;99.90;;;;;;5027982;28;20076;-77
2024/01/04 05:19:09;;;;;;;4.10;1.30;;;5.70;99.90;;;;;;5033205;28;20115;-77
2024/01/04 05:21:35;;;;;;;3.78;0.47;;;5.70;99.90;;;;;;5026673;28;20110;-77
2024/01/04 05:24:00;;;;;;;1.85;0.50;;;5.70;99.90;;;;;;5059347;28;20183;-77
2024/01/04 05:26:26;;;;;;;0.47;0.40;;;5.70;99.90;;;;;;5024815;28;20084;-77
2024/01/04 05:28:52;;;;;;;5.60;1.30;;;5.60;99.90;;;;;;5024723;28;20380;-77
2024/01/04 05:31:21;;;;;;;6.57;0.77;;;5.60;99.90;;;;;;5041311;28;20049;-77
2024/01/04 05:33:47;;;;;;;4.88;0.60;;;5.60;99.90;;;;;;5029075;28;20038;-77
2024/01/04 05:36:12;;;;;;;1.45;0.40;;;5.60;99.90;;;;;;5029156;28;20038;-77
2024/01/04 05:38:38;;;;;;;5.00;1.20;;;5.50;99.90;;;;;;5023456;28;20068;-77
2024/01/04 05:41:04;;;;;;;7.05;1.17;;;5.60;99.90;;;;;;5024130;28;20040;-77
2024/01/04 05:43:31;;;;;;;2.67;0.55;;;5.60;99.90;;;;;;5027143;28;21689;-77
2024/01/04 05:45:56;;;;;;;1.85;0.70;;;5.60;99.90;;;;;;5024535;28;20049;-77
2024/01/04 05:48:22;;;;;;;1.85;0.60;;;5.50;99.90;;;;;;5015169;28;20045;-77
2024/01/04 05:50:49;;;;;;;5.72;1.05;;;5.50;99.90;;;;;;5025862;28;21903;-77
2024/01/04 05:53:15;;;;;;;3.73;1.10;;;5.50;99.90;;;;;;5021408;28;20374;-77
2024/01/04 05:55:40;;;;;;;4.28;0.90;;;5.50;99.90;;;;;;5022606;28;20846;-77
2024/01/04 05:58:06;;;;;;;1.67;0.60;;;5.50;99.90;;;;;;5031386;28;20116;-77
2024/01/04 06:00:32;;;;;;;3.03;1.10;;;5.50;99.90;;;;;;5025967;28;20041;-77
2024/01/04 06:02:57;;;;;;;2.53;0.50;;;5.40;99.90;;;;;;5022600;28;20394;-77
2024/01/04 06:05:23;;;;;;;4.13;1.58;;;5.40;99.90;;;;;;5025471;28;20076;-77
2024/01/04 06:07:49;;;;;;;2.42;0.57;;;5.40;99.90;;;;;;5024199;28;20052;-77
2024/01/04 06:10:15;;;;;;;4.40;1.02;;;5.40;99.90;;;;;;5026140;28;20042;-77
2024/01/04 06:12:42;;;;;;;4.78;1.00;;;5.40;99.90;;;;;;5028175;28;20520;-77
2024/01/04 06:15:08;;;;;;;4.38;1.02;;;5.40;99.90;;;;;;5026930;28;20049;-77
2024/01/04 06:17:33;;;;;;;3.10;1.10;;;5.40;99.90;;;;;;5027792;28;20033;-77
2024/01/04 06:19:59;;;;;;;3.88;1.10;;;5.40;99.90;;;;;;5026892;28;20582;-77
2024/01/04 06:22:25;;;;;;;3.80;0.90;;;5.40;99.90;;;;;;5019137;28;20045;-78
2024/01/04 06:24:50;;;;;;;4.93;1.15;;;5.40;99.90;;;;;;5029253;28;20046;-77
2024/01/04 06:27:16;;;;;;;5.70;1.15;;;5.40;99.90;;;;;;5028376;28;20053;-77
2024/01/04 06:29:44;;;;;;;0.80;0.52;;;5.40;99.90;;;;;;5029605;28;20080;-78
2024/01/04 06:32:09;;;;;;;4.82;1.13;;;5.30;99.90;;;;;;5023768;28;20568;-77
2024/01/04 06:34:35;;;;;;;4.68;0.95;;;5.30;99.90;;;;;;5045531;28;20124;-78
2024/01/04 06:37:01;;;;;;;6.30;1.08;;;5.30;99.90;;;;;;5021964;28;20038;-78
2024/01/04 06:39:28;;;;;;;5.15;1.20;;;5.30;99.90;;;;;;5031089;28;20185;-77
2024/01/04 06:41:54;;;;;;;5.68;1.55;;;5.30;99.90;;;;;;5027651;28;20041;-76
2024/01/04 06:44:20;;;;;;;3.10;1.10;;;5.30;99.90;;;;;;5020264;28;20092;-80
2024/01/04 06:46:45;;;;;;;5.13;1.40;;;5.30;99.90;;;;;;5020606;28;20053;-79
2024/01/04 06:49:11;;;;;;;5.15;1.23;;;5.30;99.90;;;;;;5025518;28;20944;-81
2024/01/04 06:51:37;;;;;;;5.05;1.10;;;5.30;99.90;;;;;;5047794;28;20041;-81
2024/01/04 06:54:02;;;;;;;3.53;1.05;;;5.30;99.90;;;;;;5017581;28;20057;-81
2024/01/04 06:56:28;;;;;;;4.15;1.20;;;5.30;99.90;;;;;;5030176;28;20037;-79
2024/01/04 06:58:55;;;;;;;4.80;1.38;;;5.30;99.90;;;;;;5020029;28;20449;-81
2024/01/04 07:01:20;;;;;;;7.60;1.40;;;5.30;99.90;;;;;;5016480;28;20132;-81
2024/01/04 07:03:47;;;;;;;4.05;1.15;;;5.30;99.90;;;;;;5019645;28;20468;-76
2024/01/04 07:06:13;;;;;;;6.22;1.55;;;5.20;99.90;;;;;;5020529;28;20049;-79
2024/01/04 07:08:39;;;;;;;5.93;1.10;;;5.30;99.90;;;;;;5024443;28;20095;-80
2024/01/04 07:11:05;;;;;;;3.97;1.10;;;5.20;99.90;;;;;;5053364;28;20041;-80
2024/01/04 07:13:33;;;;;;;3.33;1.00;;;5.20;99.90;;;;;;5021007;28;20044;-80
2024/01/04 07:15:59;;;;;;;4.88;1.23;;;5.20;99.90;;;;;;5018756;28;20123;-80
2024/01/04 07:18:24;;;;;;;5.22;1.65;;;5.20;99.90;;;;;;5025760;28;20726;-80
2024/01/04 07:20:51;;;;;;;6.65;1.55;;;5.20;99.90;;;;;;5018591;28;20049;-79
2024/01/04 07:23:19;;;;;;;2.90;0.70;;;5.20;99.90;;;;;;5019844;28;20041;-80
2024/01/04 07:25:44;;;;;;;3.45;1.13;;;5.20;99.90;;;;;;5027035;28;20300;-79
2024/01/04 07:28:10;;;;;;;1.55;0.50;;;5.10;99.90;;;;;;5018943;28;20159;-80
2024/01/04 07:30:36;;;;;;;3.42;0.50;;;5.10;99.90;;;;;;5021798;28;20034;-79
2024/01/04 07:33:02;;;;;;;6.40;0.60;;;5.10;99.90;;;;;;5027399;28;20041;-78
2024/01/04 07:35:27;;;;;;;2.53;0.70;;;5.00;99.90;;;;;;5058862;28;20042;-79
2024/01/04 07:37:54;;;;;;;3.78;0.88;;;5.00;99.90;;;;;;5020243;28;20041;-79
2024/01/04 07:40:20;;;;;;;4.67;1.20;;;5.00;99.90;;;;;;5023705;28;20057;-80
2024/01/04 07:42:46;;;;;;;3.45;1.10;;;5.10;99.90;;;;;;5027322;28;20075;-80
2024/01/04 07:45:12;;;;;;;6.38;1.13;;;5.10;99.90;;;;;;5020381;28;20052;-80
2024/01/04 07:47:40;;;;;;;3.60;0.60;;;5.10;99.90;;;;;;5026051;28;20048;-79
2024/01/04 07:50:06;;;;;;;2.92;0.50;;;5.10;99.90;;;;;;5027061;28;20034;-79
2024/01/04 07:52:33;;;;;;;5.73;1.30;;;5.00;99.90;;;;;;5020770;28;20105;-79
2024/01/04 07:54:58;;;;;;;4.82;1.42;;;5.00;99.90;;;;;;5042243;28;20375;-79
2024/01/04 07:57:24;;;;;;;2.58;0.40;;;5.10;99.90;;;;;;5025772;28;20441;-79
2024/01/04 07:59:50;;;;;;;6.45;1.48;;;5.10;99.90;;;;;;5035459;28;20052;-79
2024/01/04 08:02:17;;;;;;;7.50;1.17;;;5.10;99.90;;;;;;5051640;28;20068;-79
2024/01/04 08:04:43;;;;;;;5.63;1.52;;;5.10;99.90;;;;;;5020193;28;20045;-79
2024/01/04 08:07:09;;;;;;;4.65;1.40;;;5.10;99.90;;;;;;5025342;28;20049;-79
2024/01/04 08:09:35;;;;;;;4.85;1.30;;;5.10;99.90;;;;;;5023583;28;20053;-79
2024/01/04 08:12:01;;;;;;;3.42;1.50;;;5.10;99.90;;;;;;5024271;28;20053;-78
2024/01/04 08:14:27;;;;;;;5.30;1.20;;;5.10;99.90;;;;;;5024164;28;20041;-81
2024/01/04 08:16:53;;;;;;;1.58;0.40;;;5.10;99.90;;;;;;5025846;28;20041;-78
2024/01/04 08:19:19;;;;;;;4.70;1.55;;;5.00;99.90;;;;;;5030983;28;20374;-75
2024/01/04 08:21:45;;;;;;;3.20;1.20;;;5.00;99.90;;;;;;5030011;28;20036;-80
2024/01/04 08:24:11;;;;;;;6.05;1.50;;;5.00;99.90;;;;;;5028284;28;20056;-79
2024/01/04 08:26:42;;;;;;;2.17;0.80;;;5.10;99.90;;;;;;5039010;28;20044;-79
2024/01/04 08:29:08;;;;;;;2.10;0.50;;;5.00;99.90;;;;;;5019326;28;20047;-79
2024/01/04 08:31:33;;;;;;;3.67;0.60;;;4.90;99.90;;;;;;5063360;28;20087;-81
2024/01/04 08:33:59;;;;;;;2.70;0.60;;;4.90;99.90;;;;;;5019742;28;20060;-79
2024/01/04 08:36:25;;;;;;;2.45;0.77;;;4.80;99.90;;;;;;5062095;28;20045;-80
2024/01/04 08:38:51;;;;;;;5.53;1.33;;;4.80;99.90;;;;;;5042457;22;20046;-80
2024/01/04 08:41:19;;;;;;;1.85;0.70;;;4.80;99.90;;;;;;5035476;28;20136;-81
2024/01/04 08:43:48;;;;;;;1.90;0.65;;;4.90;99.90;;;;;;5039604;28;20073;-83
2024/01/04 08:46:16;;;;;;;1.65;0.43;;;4.80;99.90;;;;;;5041990;28;20046;-80
2024/01/04 08:48:41;;;;;;;;;;;4.80;99.90;;;;;;5029570;28;20042;-80
2024/01/04 08:51:07;;;;;;;6.05;0.52;;;4.80;99.90;;;;;;5046556;28;19943;-83
2024/01/04 08:53:33;;;;;;;3.47;0.85;;;4.80;99.90;;;;;;5045227;28;20075;-83
2024/01/04 08:55:58;;;;;;;3.90;0.50;;;4.80;99.90;;;;;;5033299;28;20060;-82
2024/01/04 08:58:24;;;;;;;3.97;0.75;;;4.90;99.90;;;;;;5040712;28;20037;-78
2024/01/04 09:00:49;;;;;;;4.07;1.17;;;4.90;99.90;;;;;;5045955;28;20061;-80
2024/01/04 09:03:15;;;;;;;2.80;0.40;;;4.90;99.90;;;;;;5042055;28;20052;-81
2024/01/04 09:05:41;;;;;;;1.52;0.60;;;5.00;99.90;;;;;;5029167;28;20053;-81
2024/01/04 09:08:07;;;;;;;1.63;0.50;;;5.00;99.90;;;;;;5030366;28;20488;-80
2024/01/04 09:10:33;;;;;;;1.83;0.50;;;5.00;99.90;;;;;;5028305;28;20599;-83
2024/01/04 09:12:58;;;;;;;5.35;0.95;;;5.00;99.90;;;;;;5039778;28;20296;-81
2024/01/04 09:15:25;;;;;;;4.00;1.35;;;5.00;99.90;;;;;;5037124;28;20042;-75
2024/01/04 09:17:50;;;;;;;4.72;1.38;;;5.10;99.90;;;;;;5036229;28;20043;-77
2024/01/04 09:20:16;;;;;;;2.40;0.75;;;5.10;99.90;;;;;;5031814;28;20660;-78
2024/01/04 09:22:42;;;;;;;3.22;0.85;;;5.20;99.90;;;;;;5038586;28;20060;-77
2024/01/04 09:25:07;;;;;;;3.92;1.38;;;5.10;99.90;;;;;;5048432;28;20045;-79
2024/01/04 09:27:33;;;;;;;5.32;1.05;;;5.10;99.90;;;;;;5040704;28;20048;-80
2024/01/04 09:29:59;;;;;;;2.28;1.02;;;5.10;99.90;;;;;;5041268;28;20132;-79
2024/01/04 09:32:24;;;;;;;3.70;0.85;;;5.00;99.90;;;;;;5041287;28;20044;-79
2024/01/04 09:34:50;;;;;;;3.53;0.90;;;5.10;99.90;;;;;;5037320;28;20048;-79
2024/01/04 09:37:16;;;;;;;4.50;0.68;;;5.10;99.90;;;;;;5038887;28;20492;-80
2024/01/04 09:39:42;;;;;;;1.48;0.77;;;5.10;99.90;;;;;;5041329;28;20063;-80
2024/01/04 09:42:09;;;;;;;3.17;1.15;;;5.00;99.90;;;;;;5037988;28;20041;-80
2024/01/04 09:44:35;;;;;;;6.47;0.82;;;5.10;99.90;;;;;;5045044;28;20696;-78
2024/01/04 09:47:09;;;;;;;3.03;0.80;;;5.10;99.90;;;;;;5038462;28;20051;-78
2024/01/04 09:49:37;;;;;;;1.02;0.57;;;5.20;99.90;;;;;;5039274;28;20098;-77
2024/01/04 09:52:03;;;;;;;2.03;0.68;;;5.20;99.90;;;;;;5043918;28;20037;-78
2024/01/04 09:54:30;;;;;;;0.77;0.45;;;5.20;99.90;;;;;;5039958;28;20515;-79
2024/01/04 09:56:56;;;;;;;3.00;0.50;;;5.10;99.90;;;;;;5047400;28;20033;-79
2024/01/04 09:59:21;;;;;;;3.17;0.60;;;5.20;99.90;;;;;;5042018;28;20554;-79
2024/01/04 10:01:48;;;;;;;5.95;0.68;;;5.10;99.90;;;;;;5049420;28;20049;-78
2024/01/04 10:04:16;;;;;;;1.00;0.50;;;5.10;99.90;;;;;;5047842;28;20500;-78
2024/01/04 10:06:45;;;;;;;3.05;0.65;;;5.20;99.90;;;;;;5052650;28;20099;-80
2024/01/04 10:09:45;;;;;;;4.40;1.25;;;5.20;99.90;;;;;;5044180;28;20041;-78
2024/01/04 10:12:12;;;;;;;1.92;0.43;;;5.20;99.90;;;;;;5040483;28;20516;-77
2024/01/04 10:14:38;;;;;;;1.35;0.60;;;5.20;99.90;;;;;;5047549;28;20128;-76
2024/01/04 10:17:04;;;;;;;0.57;0.40;;;5.20;99.90;;;;;;5052557;28;20128;-78
2024/01/04 10:19:31;;;;;;;1.83;0.60;;;5.20;99.90;;;;;;5050001;28;20453;-78
2024/01/04 10:22:05;;;;;;;1.50;0.90;;;5.20;99.90;;;;;;5035286;28;20043;-77
2024/01/04 10:24:37;;;;;;;2.80;0.60;;;5.20;99.90;;;;;;5040097;28;20040;-78
2024/01/04 10:27:04;;;;;;;2.90;0.60;;;5.20;99.90;;;;;;5041588;28;20045;-78
2024/01/04 10:29:32;;;;;;;2.30;0.77;;;5.20;99.90;;;;;;5035012;28;20132;-77
2024/01/04 10:32:02;;;;;;;2.00;0.70;;;5.30;99.90;;;;;;5042946;28;20036;-78
2024/01/04 10:34:29;;;;;;;4.20;0.60;;;5.30;99.90;;;;;;5041227;28;20044;-78
2024/01/04 10:37:08;;;;;;;1.02;0.65;;;5.30;99.90;;;;;;5032422;28;20045;-80
2024/01/04 10:39:34;;;;;;;4.07;0.77;;;5.30;99.90;;;;;;5046465;28;20057;-76
2024/01/04 10:42:01;;;;;;;2.90;0.73;;;5.40;99.90;;;;;;5036147;28;20045;-77
2024/01/04 10:44:27;;;;;;;1.67;0.60;;;5.40;99.90;;;;;;5037440;28;20041;-78
2024/01/04 10:46:55;;;;;;;4.60;0.75;;;5.40;99.90;;;;;;5043833;28;20495;-77
2024/01/04 10:49:23;;;;;;;1.80;0.80;;;5.40;99.90;;;;;;5033917;28;20041;-78
2024/01/04 10:51:52;;;;;;;3.22;0.75;;;5.40;99.90;;;;;;5037544;28;20057;-79
2024/01/04 10:54:19;;;;;;;7.32;1.55;;;5.40;99.90;;;;;;5027461;28;20073;-79
2024/01/04 10:56:45;;;;;;;4.88;0.60;;;5.40;99.90;;;;;;5032933;28;20053;-77
2024/01/04 10:59:12;;;;;;;0.95;0.50;;;5.40;99.90;;;;;;5029673;28;20041;-77
2024/01/04 11:01:41;;;;;;;2.78;0.65;;;5.40;99.90;;;;;;5062201;28;20041;-76
2024/01/04 11:04:08;;;;;;;6.53;1.30;;;5.40;99.90;;;;;;5042905;28;20044;-76
2024/01/04 11:06:40;;;;;;;3.53;1.05;;;5.50;99.90;;;;;;5040843;28;20041;-75
2024/01/04 11:09:09;;;;;;;3.33;1.40;;;5.60;99.90;;;;;;5045876;28;20055;-75
2024/01/04 11:11:35;;;;;;;4.32;1.40;;;5.60;99.90;;;;;;5048771;28;20036;-79
2024/01/04 11:14:04;;;;;;;5.05;1.10;;;5.60;99.90;;;;;;5045588;28;20041;-79
2024/01/04 11:16:48;;;;;;;3.78;1.40;;;5.60;99.90;;;;;;5043346;28;20047;-77
2024/01/04 11:19:30;;;;;;;5.82;1.40;;;5.60;99.90;;;;;;5042407;28;20671;-78
2024/01/04 11:22:23;;;;;;;4.50;1.45;;;5.70;99.90;;;;;;5036916;28;20049;-78
2024/01/04 11:25:13;;;;;;;4.80;1.10;;;5.70;99.90;;;;;;5031180;28;20041;-78
2024/01/04 11:27:39;;;;;;;4.18;1.20;;;5.70;99.90;;;;;;5036865;28;20053;-80
2024/01/04 11:30:06;;;;;;;3.90;1.10;;;5.70;99.90;;;;;;5031802;28;20052;-80
2024/01/04 11:32:32;;;;;;;4.03;1.00;;;5.80;99.90;;;;;;5039837;28;20544;-79
2024/01/04 11:34:57;;;;;;;4.45;1.40;;;5.80;99.90;;;;;;5048753;28;20052;-79
2024/01/04 11:37:25;;;;;;;5.65;1.58;;;5.90;99.90;;;;;;5035266;28;20044;-79
2024/01/04 11:40:03;;;;;;;3.47;1.17;;;5.90;99.90;;;;;;5038108;28;20088;-80
2024/01/04 11:42:37;;;;;;;5.13;1.35;;;6.00;99.90;;;;;;5035187;28;20063;-78
2024/01/04 11:45:04;;;;;;;6.20;1.77;;;6.00;99.90;;;;;;5048113;28;20051;-78
2024/01/04 11:47:37;;;;;;;;;;;6.00;99.90;;;;;;5048031;28;20516;-79
2024/01/04 11:50:13;;;;;;;4.90;1.50;;;5.90;99.90;;;;;;5042791;28;20063;-78
2024/01/04 11:52:39;;;;;;;5.15;1.50;;;5.90;99.90;;;;;;5032550;28;20052;-79
2024/01/04 11:55:05;;;;;;;5.93;1.77;;;5.90;99.90;;;;;;5046399;28;20472;-79
2024/01/04 11:57:31;;;;;;;3.40;1.27;;;5.90;99.90;;;;;;5045280;28;20545;-79
2024/01/04 11:59:56;;;;;;;4.72;1.55;;;5.90;99.90;;;;;;5036338;28;20051;-79
2024/01/04 12:02:22;;;;;;;2.58;0.77;;;5.90;99.90;;;;;;5048515;28;20067;-79
2024/01/04 12:04:48;;;;;;;2.63;0.75;;;5.90;99.90;;;;;;5042300;28;20037;-78
2024/01/04 12:07:14;;;;;;;2.13;0.77;;;5.90;99.90;;;;;;5039831;28;20128;-77
2024/01/04 12:09:41;;;;;;;2.47;0.95;;;5.90;99.90;;;;;;5038867;28;20352;-78
2024/01/04 12:12:09;;;;;;;1.70;0.90;;;5.90;99.90;;;;;;5040176;28;20080;-84
2024/01/04 12:14:36;;;;;;;4.18;1.05;;;6.00;99.90;;;;;;5046876;28;20103;-80
2024/01/04 12:17:01;;;;;;;3.47;1.30;;;6.00;99.90;;;;;;5039028;28;20110;-82
2024/01/04 12:19:27;;;;;;;2.10;0.70;;;6.10;99.90;;;;;;5045928;28;20480;-81
2024/01/04 12:21:55;;;;;;;2.72;1.20;;;6.10;99.90;;;;;;5041939;28;20536;-80
2024/01/04 12:24:25;;;;;;;3.30;1.20;;;6.10;99.90;;;;;;5038182;28;20129;-86
2024/01/04 12:26:51;;;;;;;5.20;0.60;;;6.30;99.90;;;;;;5063008;28;20076;-76
2024/01/04 12:29:16;;;;;;;1.40;0.60;;;6.20;99.90;;;;;;5040908;28;20569;-76
2024/01/04 12:31:45;;;;;;;3.55;1.13;;;6.20;99.90;;;;;;5040811;28;20182;-77
2024/01/04 12:34:11;;;;;;;1.30;0.63;;;6.30;99.90;;;;;;5034002;28;20049;-77
2024/01/04 12:36:37;;;;;;;3.60;0.95;;;6.30;99.90;;;;;;5044622;28;20048;-77
2024/01/04 12:39:21;;;;;;;2.58;0.80;;;6.30;99.90;;;;;;5045909;28;20045;-77
2024/01/04 12:41:49;;;;;;;5.03;1.60;;;6.30;99.90;;;;;;5040317;28;20124;-78
2024/01/04 12:44:14;;;;;;;4.43;1.63;;;6.30;99.90;;;;;;5043682;28;20055;-78
2024/01/04 12:46:43;;;;;;;5.05;1.58;;;6.40;99.90;;;;;;5042623;28;20049;-78
2024/01/04 12:49:10;;;;;;;2.97;1.02;;;6.50;99.90;;;;;;5045710;28;20504;-77
2024/01/04 12:51:38;;;;;;;;;;;6.40;99.90;;;;;;5040290;28;20042;-77
2024/01/04 12:54:07;;;;;;;2.53;0.95;;;6.40;99.90;;;;;;5039550;28;19921;-77